createdAt,value
2023-02-24T00:01:59.697Z,81.05
2023-02-24T00:04:29.433Z,81.05
2023-02-24T00:06:56.125Z,80.99
2023-02-24T00:09:28.560Z,80.86
2023-02-24T00:12:00.560Z,80.23
2023-02-24T00:14:30.441Z,80.25
2023-02-24T00:17:00.807Z,80.43
2023-02-24T00:19:33.486Z,80.49
2023-02-24T00:22:02.061Z,80.49
2023-02-24T00:24:28.789Z,80.65
2023-02-24T00:26:59.079Z,80.66
2023-02-24T00:29:28.306Z,80.87
2023-02-24T00:32:00.146Z,80.97
2023-02-24T00:34:29.737Z,80.86
2023-02-24T00:36:57.710Z,80.95
2023-02-24T00:39:33.081Z,81.04
2023-02-24T00:42:04.445Z,80.87
2023-02-24T00:44:44.322Z,80.89
2023-02-24T00:47:11.990Z,80.85
2023-02-24T00:49:41.628Z,80.95
2023-02-24T00:52:17.766Z,81.04
2023-02-24T00:54:47.248Z,81.00
2023-02-24T00:57:18.060Z,81.17
2023-02-24T00:59:47.047Z,81.19
2023-02-24T01:02:14.945Z,81.13
2023-02-24T01:04:43.811Z,81.10
2023-02-24T01:07:11.417Z,81.41
2023-02-24T01:09:40.871Z,81.29
2023-02-24T01:12:28.928Z,81.22
2023-02-24T01:14:58.293Z,81.18
2023-02-24T01:17:25.039Z,81.07
2023-02-24T01:19:51.850Z,81.07
2023-02-24T01:22:20.306Z,81.16
2023-02-24T01:24:47.906Z,81.16
2023-02-24T01:27:19.300Z,81.05
2023-02-24T01:29:47.135Z,80.99
2023-02-24T01:32:20.119Z,80.89
2023-02-24T01:34:50.818Z,81.06
2023-02-24T01:37:18.653Z,81.18
2023-02-24T01:39:45.986Z,81.20
2023-02-24T01:42:18.910Z,81.27
2023-02-24T01:44:47.069Z,81.43
2023-02-24T01:47:17.834Z,81.49
2023-02-24T01:49:47.147Z,81.70
2023-02-24T01:52:24.257Z,81.91
2023-02-24T01:55:08.711Z,81.90
2023-02-24T01:57:38.379Z,81.85
2023-02-24T02:00:18.830Z,81.87
2023-02-24T02:02:52.034Z,81.81
2023-02-24T02:05:18.880Z,81.94
2023-02-24T02:07:45.853Z,82.15
2023-02-24T02:10:13.464Z,82.16
2023-02-24T02:12:45.488Z,82.19
2023-02-24T02:15:19.784Z,82.31
2023-02-24T02:18:27.458Z,82.25
2023-02-24T02:21:06.520Z,82.65
2023-02-24T02:23:50.590Z,82.59
2023-02-24T02:26:20.709Z,82.58
2023-02-24T02:28:54.583Z,82.58
2023-02-24T02:31:46.118Z,82.71
2023-02-24T02:34:19.625Z,82.62
2023-02-24T02:37:11.751Z,82.80
2023-02-24T02:40:07.614Z,82.81
2023-02-24T02:42:50.849Z,83.26
2023-02-24T02:45:24.207Z,83.41
2023-02-24T02:48:23.964Z,83.50
2023-02-24T02:51:03.646Z,83.81
2023-02-24T02:53:39.335Z,84.81
2023-02-24T02:56:31.527Z,85.14
2023-02-24T02:59:00.421Z,85.52
2023-02-24T03:01:33.573Z,85.46
2023-02-24T03:04:05.084Z,85.72
2023-02-24T03:06:34.630Z,86.27
2023-02-24T03:09:11.979Z,86.32
2023-02-24T03:11:41.009Z,86.64
2023-02-24T03:14:12.310Z,86.91
2023-02-24T03:16:43.220Z,87.38
2023-02-24T03:19:13.182Z,87.69
2023-02-24T03:21:57.685Z,87.86
2023-02-24T03:24:24.484Z,88.04
2023-02-24T03:27:11.295Z,88.32
2023-02-24T03:29:48.234Z,88.60
2023-02-24T03:32:32.737Z,89.02
2023-02-24T03:35:13.162Z,89.39
2023-02-24T03:37:41.197Z,89.59
2023-02-24T03:40:13.935Z,89.71
2023-02-24T03:42:45.725Z,89.94
2023-02-24T03:45:13.194Z,90.03
2023-02-24T03:47:41.053Z,90.24
2023-02-24T03:50:15.704Z,90.47
2023-02-24T03:52:51.607Z,90.53
2023-02-24T03:55:45.725Z,90.47
2023-02-24T03:58:27.717Z,90.60
2023-02-24T04:00:55.311Z,90.39
2023-02-24T04:03:27.901Z,90.51
2023-02-24T04:06:08.390Z,90.61
2023-02-24T04:09:00.860Z,90.70
2023-02-24T04:11:43.609Z,90.81
2023-02-24T04:14:34.276Z,90.96
2023-02-24T04:17:12.894Z,91.30
2023-02-24T04:19:43.921Z,91.37
2023-02-24T04:22:15.032Z,91.36
2023-02-24T04:24:44.215Z,91.35
2023-02-24T04:27:12.761Z,91.42
2023-02-24T04:29:51.473Z,91.64
2023-02-24T04:32:24.680Z,91.69
2023-02-24T04:34:51.969Z,91.75
2023-02-24T04:37:22.499Z,91.86
2023-02-24T04:39:50.320Z,91.84
2023-02-24T04:42:23.199Z,91.91
2023-02-24T04:44:50.068Z,92.11
2023-02-24T04:47:16.721Z,92.24
2023-02-24T04:49:43.962Z,92.19
2023-02-24T04:52:11.514Z,92.32
2023-02-24T04:54:38.288Z,92.42
2023-02-24T04:57:06.733Z,92.43
2023-02-24T04:59:33.380Z,92.44
2023-02-24T05:02:01.240Z,92.42
2023-02-24T05:04:29.525Z,92.77
2023-02-24T05:06:57.055Z,92.83
2023-02-24T05:09:23.966Z,92.88
2023-02-24T05:11:51.845Z,92.85
2023-02-24T05:14:24.498Z,92.85
2023-02-24T05:16:51.428Z,92.98
2023-02-24T05:19:38.559Z,93.11
2023-02-24T05:22:06.519Z,93.21
2023-02-24T05:24:34.130Z,93.29
2023-02-24T05:27:03.180Z,93.38
2023-02-24T05:29:34.310Z,93.51
2023-02-24T05:32:03.469Z,93.60
2023-02-24T05:34:31.949Z,93.66
2023-02-24T05:37:01.064Z,93.72
2023-02-24T05:39:27.863Z,93.69
2023-02-24T05:41:56.653Z,93.74
2023-02-24T05:44:25.459Z,93.78
2023-02-24T05:46:58.043Z,93.86
2023-02-24T05:49:32.458Z,93.93
2023-02-24T05:52:06.777Z,93.96
2023-02-24T05:54:40.049Z,93.90
2023-02-24T05:57:13.255Z,93.89
2023-02-24T05:59:41.122Z,93.85
2023-02-24T06:02:13.229Z,93.83
2023-02-24T06:04:50.474Z,93.87
2023-02-24T06:07:18.553Z,93.90
2023-02-24T06:09:49.327Z,93.89
2023-02-24T06:12:17.631Z,93.92
2023-02-24T06:14:44.608Z,93.95
2023-02-24T06:17:11.457Z,93.98
2023-02-24T06:19:39.233Z,93.96
2023-02-24T06:22:10.372Z,93.94
2023-02-24T06:24:37.130Z,93.88
2023-02-24T06:27:10.023Z,93.94
2023-02-24T06:29:37.473Z,94.04
2023-02-24T06:32:10.468Z,94.17
2023-02-24T06:34:38.606Z,94.19
2023-02-24T06:37:09.126Z,94.23
2023-02-24T06:39:36.913Z,94.29
2023-02-24T06:42:04.901Z,94.30
2023-02-24T06:44:33.355Z,94.30
2023-02-24T06:47:00.572Z,94.30
2023-02-24T06:49:28.026Z,94.30
2023-02-24T06:51:57.040Z,94.35
2023-02-24T06:54:27.789Z,94.46
2023-02-24T06:56:55.083Z,94.48
2023-02-24T06:59:22.018Z,94.56
2023-02-24T07:01:48.953Z,94.60
2023-02-24T07:04:16.564Z,94.58
2023-02-24T07:06:48.744Z,94.57
2023-02-24T07:09:18.227Z,94.58
2023-02-24T07:11:51.334Z,94.62
2023-02-24T07:14:23.861Z,94.67
2023-02-24T07:16:54.068Z,94.73
2023-02-24T07:19:28.630Z,94.73
2023-02-24T07:21:59.516Z,94.74
2023-02-24T07:24:39.441Z,94.75
2023-02-24T07:27:21.384Z,94.73
2023-02-24T07:29:53.008Z,94.75
2023-02-24T07:32:25.017Z,94.69
2023-02-24T07:34:52.571Z,94.70
2023-02-24T07:37:20.012Z,94.72
2023-02-24T07:39:49.048Z,94.78
2023-02-24T07:42:15.744Z,94.81
2023-02-24T07:44:45.833Z,94.81
2023-02-24T07:47:15.137Z,94.83
2023-02-24T07:49:41.884Z,94.83
2023-02-24T07:52:10.894Z,94.81
2023-02-24T07:54:38.657Z,94.81
2023-02-24T07:57:05.867Z,94.81
2023-02-24T07:59:34.576Z,94.80
2023-02-24T08:02:04.015Z,94.80
2023-02-24T08:04:32.463Z,94.82
2023-02-24T08:07:02.176Z,94.85
2023-02-24T08:10:06.742Z,94.82
2023-02-24T08:12:34.610Z,94.77
2023-02-24T08:15:08.366Z,94.79
2023-02-24T08:17:35.117Z,94.81
2023-02-24T08:20:14.112Z,94.93
2023-02-24T08:22:46.327Z,94.91
2023-02-24T08:25:17.722Z,94.93
2023-02-24T08:28:06.373Z,94.97
2023-02-24T08:30:39.774Z,94.98
2023-02-24T08:33:09.353Z,95.04
2023-02-24T08:35:38.408Z,95.09
2023-02-24T08:38:27.114Z,95.10
2023-02-24T08:40:55.260Z,95.14
2023-02-24T08:43:35.244Z,95.16
2023-02-24T08:46:32.157Z,95.15
2023-02-24T08:49:02.178Z,95.12
2023-02-24T08:51:34.322Z,95.09
2023-02-24T08:54:10.543Z,95.08
2023-02-24T08:56:42.673Z,95.08
2023-02-24T08:59:28.543Z,95.08
2023-02-24T09:02:17.000Z,95.03
2023-02-24T09:04:59.204Z,94.99
2023-02-24T09:07:40.074Z,94.96
2023-02-24T09:10:18.516Z,94.89
2023-02-24T09:12:46.150Z,94.85
2023-02-24T09:15:16.183Z,94.84
2023-02-24T09:17:44.582Z,94.80
2023-02-24T09:20:35.695Z,94.76
2023-02-24T09:23:03.796Z,94.73
2023-02-24T09:25:40.969Z,94.70
2023-02-24T09:28:18.194Z,94.68
2023-02-24T09:30:54.861Z,94.65
2023-02-24T09:33:28.716Z,94.62
2023-02-24T09:36:08.946Z,94.60
2023-02-24T09:39:01.836Z,94.57
2023-02-24T09:42:17.312Z,94.54
2023-02-24T09:44:48.607Z,94.50
2023-02-24T09:47:30.424Z,94.48
2023-02-24T09:50:07.910Z,94.46
2023-02-24T09:52:40.530Z,94.46
2023-02-24T09:55:24.509Z,94.47
2023-02-24T09:58:12.869Z,94.48
2023-02-24T10:00:44.573Z,94.48
2023-02-24T10:03:40.824Z,94.46
2023-02-24T10:06:26.353Z,94.44
2023-02-24T10:09:13.774Z,94.38
2023-02-24T10:12:07.265Z,94.33
2023-02-24T10:14:44.391Z,94.26
2023-02-24T10:17:23.950Z,94.20
2023-02-24T10:20:13.514Z,94.15
2023-02-24T10:22:53.223Z,94.09
2023-02-24T10:25:41.167Z,94.03
2023-02-24T10:28:21.694Z,93.92
2023-02-24T10:31:09.642Z,93.80
2023-02-24T10:33:44.835Z,93.63
2023-02-24T10:36:17.238Z,93.40
2023-02-24T10:38:45.069Z,93.22
2023-02-24T10:41:16.556Z,93.11
2023-02-24T10:43:55.470Z,92.99
2023-02-24T10:46:42.165Z,92.94
2023-02-24T10:49:15.686Z,92.88
2023-02-24T10:51:50.695Z,92.89
2023-02-24T10:54:44.064Z,92.84
2023-02-24T10:57:36.023Z,92.80
2023-02-24T11:00:18.258Z,92.81
2023-02-24T11:03:06.590Z,92.82
2023-02-24T11:05:45.400Z,92.88
2023-02-24T11:08:36.164Z,92.93
2023-02-24T11:11:26.105Z,92.90
2023-02-24T11:14:12.599Z,92.89
2023-02-24T11:17:10.309Z,92.88
2023-02-24T11:19:45.784Z,92.92
2023-02-24T11:22:19.880Z,92.88
2023-02-24T11:24:49.673Z,92.85
2023-02-24T11:27:23.075Z,92.86
2023-02-24T11:29:52.869Z,92.86
2023-02-24T11:32:34.799Z,92.91
2023-02-24T11:35:22.048Z,93.02
2023-02-24T11:38:05.443Z,93.06
2023-02-24T11:40:39.510Z,93.15
2023-02-24T11:43:13.869Z,93.34
2023-02-24T11:45:44.591Z,93.30
2023-02-24T11:48:38.394Z,93.22
2023-02-24T11:51:17.842Z,93.25
2023-02-24T11:53:53.204Z,93.19
2023-02-24T11:56:38.137Z,93.16
2023-02-24T11:59:19.794Z,93.16
2023-02-24T12:01:53.026Z,93.18
2023-02-24T12:04:25.756Z,93.02
2023-02-24T12:07:14.030Z,92.77
2023-02-24T12:10:16.013Z,92.44
2023-02-24T12:13:03.865Z,92.12
2023-02-24T12:15:52.629Z,91.62
2023-02-24T12:18:27.234Z,91.45
2023-02-24T12:20:59.955Z,91.33
2023-02-24T12:23:39.522Z,90.85
2023-02-24T12:26:09.372Z,90.61
2023-02-24T12:28:56.344Z,90.16
2023-02-24T12:31:38.508Z,90.07
2023-02-24T12:34:08.348Z,89.82
2023-02-24T12:37:07.017Z,89.76
2023-02-24T12:39:53.523Z,89.63
2023-02-24T12:42:31.024Z,89.71
2023-02-24T12:45:16.457Z,89.64
2023-02-24T12:47:58.526Z,89.56
2023-02-24T12:50:47.088Z,89.41
2023-02-24T12:53:26.085Z,89.26
2023-02-24T12:56:05.774Z,89.32
2023-02-24T12:58:36.632Z,89.44
2023-02-24T13:01:34.491Z,89.48
2023-02-24T13:04:23.131Z,89.65
2023-02-24T13:07:30.811Z,89.74
2023-02-24T13:10:12.089Z,89.37
2023-02-24T13:12:51.631Z,88.85
2023-02-24T13:15:24.971Z,88.73
2023-02-24T13:17:55.741Z,88.30
2023-02-24T13:20:33.605Z,88.33
2023-02-24T13:23:03.059Z,88.30
2023-02-24T13:25:39.226Z,88.20
2023-02-24T13:28:26.975Z,87.91
2023-02-24T13:31:12.059Z,88.10
2023-02-24T13:33:44.181Z,88.27
2023-02-24T13:36:15.394Z,88.53
2023-02-24T13:38:47.389Z,88.64
2023-02-24T13:41:26.525Z,87.97
2023-02-24T13:44:01.414Z,87.91
2023-02-24T13:46:49.009Z,87.72
2023-02-24T13:49:22.446Z,87.52
2023-02-24T13:51:59.222Z,87.30
2023-02-24T13:54:25.852Z,86.83
2023-02-24T13:56:55.957Z,86.86
2023-02-24T13:59:52.616Z,87.01
2023-02-24T14:02:22.426Z,86.63
2023-02-24T14:04:55.099Z,86.13
2023-02-24T14:07:24.707Z,85.59
2023-02-24T14:09:58.810Z,85.78
2023-02-24T14:12:33.666Z,85.02
2023-02-24T14:15:02.936Z,85.12
2023-02-24T14:17:33.108Z,85.04
2023-02-24T14:20:09.029Z,84.71
2023-02-24T14:22:52.548Z,84.24
2023-02-24T14:25:21.606Z,84.38
2023-02-24T14:27:52.101Z,84.36
2023-02-24T14:30:35.087Z,84.26
2023-02-24T14:33:04.214Z,83.34
2023-02-24T14:35:46.616Z,82.56
2023-02-24T14:38:39.670Z,82.22
2023-02-24T14:41:19.318Z,82.22
2023-02-24T14:43:46.299Z,82.02
2023-02-24T14:46:13.122Z,82.09
2023-02-24T14:48:39.981Z,82.53
2023-02-24T14:51:11.903Z,82.10
2023-02-24T14:53:49.014Z,81.72
2023-02-24T14:56:17.851Z,81.45
2023-02-24T14:58:53.045Z,81.02
2023-02-24T15:01:49.317Z,81.13
2023-02-24T15:04:32.238Z,80.88
2023-02-24T15:07:02.823Z,81.11
2023-02-24T15:09:36.599Z,80.58
2023-02-24T15:12:20.253Z,80.18
2023-02-24T15:15:01.318Z,80.32
2023-02-24T15:17:28.895Z,79.92
2023-02-24T15:19:55.649Z,80.31
2023-02-24T15:22:28.809Z,80.53
2023-02-24T15:25:12.519Z,80.14
2023-02-24T15:27:59.940Z,80.31
2023-02-24T15:30:34.094Z,80.14
2023-02-24T15:33:07.703Z,80.28
2023-02-24T15:35:38.460Z,80.75
2023-02-24T15:38:05.454Z,80.97
2023-02-24T15:40:33.000Z,81.31
2023-02-24T15:43:16.050Z,81.54
2023-02-24T15:46:06.723Z,81.70
2023-02-24T15:49:30.822Z,82.11
2023-02-24T15:53:20.834Z,82.35
2023-02-24T15:56:19.935Z,82.39
2023-02-24T15:59:26.499Z,82.50
2023-02-24T16:02:13.661Z,82.58
2023-02-24T16:11:06.542Z,82.39
2023-02-24T16:17:39.615Z,82.08
2023-02-24T16:25:02.554Z,82.35
2023-02-24T16:28:05.608Z,82.55
2023-02-24T16:30:48.974Z,82.50
2023-02-24T16:38:12.549Z,82.75
2023-02-24T16:41:41.799Z,82.82
2023-02-24T16:50:15.061Z,82.95
2023-02-24T16:57:11.748Z,82.78
2023-02-24T17:03:06.874Z,82.72
2023-02-24T17:06:13.707Z,82.70
2023-02-24T17:08:56.000Z,82.73
2023-02-24T17:12:02.033Z,82.55
2023-02-24T17:14:53.981Z,82.50
2023-02-24T17:17:51.112Z,82.72
2023-02-24T17:20:44.464Z,82.42
2023-02-24T17:23:45.694Z,82.48
2023-02-24T17:26:39.969Z,82.53
2023-02-24T17:29:20.599Z,82.43
2023-02-24T17:32:27.754Z,82.38
2023-02-24T17:39:06.595Z,82.68
2023-02-24T17:43:05.743Z,82.53
2023-02-24T17:45:57.156Z,82.58
2023-02-24T17:48:24.109Z,82.85
2023-02-24T17:50:51.440Z,82.82
2023-02-24T17:53:18.339Z,82.58
2023-02-24T17:56:01.381Z,82.56
2023-02-24T17:58:29.801Z,82.62
2023-02-24T18:00:56.967Z,82.98
2023-02-24T18:03:24.306Z,83.08
2023-02-24T18:06:02.991Z,83.20
2023-02-24T18:08:32.360Z,83.28
2023-02-24T18:10:59.405Z,83.28
2023-02-24T18:13:28.592Z,83.45
2023-02-24T18:15:56.210Z,83.50
2023-02-24T18:18:25.069Z,83.81
2023-02-24T18:20:52.121Z,84.02
2023-02-24T18:23:19.415Z,84.09
2023-02-24T18:25:46.266Z,84.26
2023-02-24T18:28:13.106Z,84.40
2023-02-24T18:30:40.005Z,84.45
2023-02-24T18:33:06.979Z,84.51
2023-02-24T18:35:34.261Z,84.40
2023-02-24T18:38:02.238Z,84.13
2023-02-24T18:40:29.391Z,84.06
2023-02-24T18:42:56.463Z,84.17
2023-02-24T18:45:23.948Z,84.10
2023-02-24T18:47:51.554Z,84.20
2023-02-24T18:50:20.193Z,84.19
2023-02-24T18:52:47.902Z,84.40
2023-02-24T18:55:14.950Z,84.51
2023-02-24T18:57:42.614Z,84.45
2023-02-24T19:00:12.623Z,84.40
2023-02-24T19:02:40.859Z,84.53
2023-02-24T19:05:08.286Z,84.51
2023-02-24T19:07:35.169Z,84.50
2023-02-24T19:10:02.191Z,84.54
2023-02-24T19:12:29.120Z,84.67
2023-02-24T19:14:55.978Z,84.59
2023-02-24T19:17:22.826Z,84.43
2023-02-24T19:19:50.187Z,84.42
2023-02-24T19:22:16.983Z,84.30
2023-02-24T19:24:44.514Z,84.35
2023-02-24T19:27:11.261Z,84.68
2023-02-24T19:29:37.971Z,84.54
2023-02-24T19:32:04.995Z,84.61
2023-02-24T19:34:31.874Z,84.68
2023-02-24T19:36:58.624Z,84.79
2023-02-24T19:39:25.503Z,85.01
2023-02-24T19:41:52.920Z,85.20
2023-02-24T19:44:19.859Z,85.28
2023-02-24T19:46:47.017Z,85.49
2023-02-24T19:49:13.668Z,85.55
2023-02-24T19:51:40.404Z,85.53
2023-02-24T19:54:07.217Z,85.45
2023-02-24T19:56:36.206Z,85.57
2023-02-24T19:59:10.818Z,85.62
2023-02-24T20:01:37.838Z,85.62
2023-02-24T20:04:05.245Z,85.51
2023-02-24T20:06:40.662Z,85.57
2023-02-24T20:09:10.515Z,85.63
2023-02-24T20:11:38.606Z,85.57
2023-02-24T20:14:07.936Z,85.66
2023-02-24T20:16:36.910Z,85.71
2023-02-24T20:19:05.467Z,85.72
2023-02-24T20:21:33.408Z,85.65
2023-02-24T20:24:05.335Z,85.71
2023-02-24T20:26:32.943Z,85.80
2023-02-24T20:29:00.434Z,85.85
2023-02-24T20:31:27.843Z,86.05
2023-02-24T20:33:55.853Z,86.22
2023-02-24T20:36:28.283Z,86.52
2023-02-24T20:38:57.174Z,86.79
2023-02-24T20:41:26.073Z,87.00
2023-02-24T20:43:54.674Z,87.24
2023-02-24T20:46:30.255Z,87.44
2023-02-24T20:49:03.498Z,87.59
2023-02-24T20:51:32.090Z,87.77
2023-02-24T20:54:08.490Z,88.03
2023-02-24T20:56:37.419Z,88.11
2023-02-24T20:59:12.405Z,88.14
2023-02-24T21:01:41.388Z,88.17
2023-02-24T21:04:08.275Z,88.27
2023-02-24T21:06:36.576Z,88.38
2023-02-24T21:09:03.868Z,88.41
2023-02-24T21:11:32.191Z,88.50
2023-02-24T21:13:59.522Z,88.57
2023-02-24T21:16:27.370Z,88.65
2023-02-24T21:18:55.711Z,88.60
2023-02-24T21:21:22.667Z,88.64
2023-02-24T21:23:49.980Z,88.66
2023-02-24T21:26:17.238Z,88.72
2023-02-24T21:28:44.380Z,88.74
2023-02-24T21:31:14.330Z,88.81
2023-02-24T21:33:53.762Z,88.75
2023-02-24T21:36:39.929Z,88.68
2023-02-24T21:39:07.092Z,88.67
2023-02-24T21:41:35.880Z,88.69
2023-02-24T21:44:03.298Z,88.69
2023-02-24T21:46:30.601Z,88.62
2023-02-24T21:48:58.490Z,88.63
2023-02-24T21:51:27.234Z,88.64
2023-02-24T21:53:55.303Z,88.64
2023-02-24T21:56:25.772Z,88.72
2023-02-24T21:58:54.120Z,88.78
2023-02-24T22:01:25.162Z,88.80
2023-02-24T22:03:57.299Z,88.79
2023-02-24T22:06:31.343Z,88.67
2023-02-24T22:08:59.336Z,88.56
2023-02-24T22:11:26.793Z,88.47
2023-02-24T22:13:53.657Z,88.63
2023-02-24T22:16:22.890Z,89.01
2023-02-24T22:18:51.320Z,89.16
2023-02-24T22:21:21.081Z,89.22
2023-02-24T22:23:51.823Z,89.37
2023-02-24T22:26:22.402Z,89.44
2023-02-24T22:28:49.332Z,89.33
2023-02-24T22:31:18.682Z,89.31
2023-02-24T22:33:46.266Z,89.27
2023-02-24T22:36:16.621Z,89.17
2023-02-24T22:38:47.646Z,89.08
2023-02-24T22:41:17.328Z,88.95
2023-02-24T22:43:44.574Z,88.77
2023-02-24T22:46:14.188Z,88.58
2023-02-24T22:48:42.914Z,88.44
2023-02-24T22:51:11.728Z,88.40
2023-02-24T22:53:41.636Z,88.27
2023-02-24T22:56:12.738Z,88.22
2023-02-24T22:58:39.579Z,88.23
2023-02-24T23:01:11.430Z,88.26
2023-02-24T23:03:39.570Z,88.21
2023-02-24T23:06:15.896Z,88.16
2023-02-24T23:08:45.860Z,88.07
2023-02-24T23:11:14.438Z,88.03
2023-02-24T23:13:44.184Z,88.03
2023-02-24T23:16:14.415Z,88.04
2023-02-24T23:18:47.974Z,87.95
2023-02-24T23:21:15.529Z,87.94
2023-02-24T23:23:42.604Z,87.86
2023-02-24T23:26:10.854Z,87.79
2023-02-24T23:28:38.692Z,87.81
2023-02-24T23:31:06.663Z,87.84
2023-02-24T23:33:34.055Z,87.91
2023-02-24T23:36:06.226Z,88.10
2023-02-24T23:38:33.735Z,87.96
2023-02-24T23:41:00.761Z,87.94
2023-02-24T23:43:27.521Z,87.93
2023-02-24T23:45:55.089Z,88.00
2023-02-24T23:48:22.029Z,87.96
2023-02-24T23:50:50.644Z,87.98
2023-02-24T23:53:17.630Z,87.99
2023-02-24T23:55:44.350Z,87.99
2023-02-24T23:58:11.294Z,87.96
